createdAt,value
2018-06-12T00:00:34.157Z,16.90
2018-06-12T00:03:02.687Z,16.90
2018-06-12T00:05:31.401Z,16.90
2018-06-12T00:07:59.911Z,16.80
2018-06-12T00:10:28.462Z,16.80
2018-06-12T00:12:56.996Z,16.80
2018-06-12T00:15:25.482Z,16.80
2018-06-12T00:17:54.115Z,16.90
2018-06-12T00:20:22.636Z,16.90
2018-06-12T00:22:51.184Z,16.90
2018-06-12T00:25:19.754Z,16.90
2018-06-12T00:27:48.269Z,16.80
2018-06-12T00:30:16.891Z,16.80
2018-06-12T00:32:45.515Z,16.80
2018-06-12T00:35:14.063Z,16.80
2018-06-12T00:37:42.608Z,16.70
2018-06-12T00:40:11.249Z,16.70
2018-06-12T00:42:39.739Z,16.70
2018-06-12T00:45:08.242Z,16.70
2018-06-12T00:47:36.816Z,16.70
2018-06-12T00:50:05.400Z,16.80
2018-06-12T00:52:33.904Z,16.80
2018-06-12T00:55:02.411Z,16.70
2018-06-12T00:57:31.042Z,16.70
2018-06-12T00:59:59.630Z,16.60
2018-06-12T01:02:28.346Z,16.60
2018-06-12T01:04:56.865Z,16.60
2018-06-12T01:07:25.496Z,16.60
2018-06-12T01:09:54.058Z,16.50
2018-06-12T01:12:29.005Z,16.60
2018-06-12T01:14:57.513Z,16.50
2018-06-12T01:17:26.047Z,16.50
2018-06-12T01:19:54.697Z,16.50
2018-06-12T01:22:23.161Z,16.60
2018-06-12T01:24:51.707Z,16.60
2018-06-12T01:27:20.282Z,16.60
2018-06-12T01:29:48.883Z,16.50
2018-06-12T01:32:17.363Z,16.50
2018-06-12T01:34:45.908Z,16.40
2018-06-12T01:37:14.414Z,16.40
2018-06-12T01:39:42.886Z,16.30
2018-06-12T01:42:11.373Z,16.30
2018-06-12T01:44:40.041Z,16.20
2018-06-12T01:47:08.579Z,16.10
2018-06-12T01:49:37.074Z,15.90
2018-06-12T01:52:05.678Z,15.80
2018-06-12T01:54:34.223Z,15.80
2018-06-12T01:57:02.733Z,15.70
2018-06-12T01:59:31.284Z,15.60
2018-06-12T02:02:00.110Z,15.50
2018-06-12T02:04:28.659Z,15.50
2018-06-12T02:06:57.152Z,15.50
2018-06-12T02:09:25.738Z,15.50
2018-06-12T02:11:54.239Z,15.60
2018-06-12T02:14:22.742Z,15.60
2018-06-12T02:16:51.267Z,15.60
2018-06-12T02:19:19.773Z,15.60
2018-06-12T02:21:48.276Z,15.60
2018-06-12T02:24:16.787Z,15.60
2018-06-12T02:26:45.363Z,15.60
2018-06-12T02:29:14.517Z,15.60
2018-06-12T02:31:43.068Z,15.60
2018-06-12T02:34:11.577Z,15.40
2018-06-12T02:36:40.068Z,15.40
2018-06-12T02:39:08.727Z,15.40
2018-06-12T02:41:37.317Z,15.40
2018-06-12T02:44:05.856Z,15.20
2018-06-12T02:46:34.388Z,15.00
2018-06-12T02:49:02.978Z,14.90
2018-06-12T02:51:31.490Z,14.70
2018-06-12T02:54:00.069Z,14.60
2018-06-12T02:56:28.592Z,14.70
2018-06-12T02:58:57.128Z,14.70
2018-06-12T03:01:25.637Z,14.80
2018-06-12T03:03:54.190Z,14.90
2018-06-12T03:06:22.742Z,15.00
2018-06-12T03:08:51.596Z,15.10
2018-06-12T03:11:20.150Z,15.20
2018-06-12T03:13:48.700Z,15.30
2018-06-12T03:16:17.247Z,15.40
2018-06-12T03:18:46.659Z,15.50
2018-06-12T03:21:15.190Z,15.60
2018-06-12T03:23:43.699Z,15.70
2018-06-12T03:26:12.433Z,15.70
2018-06-12T03:28:40.962Z,15.60
2018-06-12T03:31:09.481Z,15.60
2018-06-12T03:36:06.288Z,15.40
2018-06-12T03:38:34.836Z,15.50
2018-06-12T03:41:03.378Z,15.50
2018-06-12T03:43:31.926Z,15.60
2018-06-12T03:46:00.553Z,15.70
2018-06-12T03:48:29.203Z,15.80
2018-06-12T03:50:57.781Z,15.90
2018-06-12T03:53:26.316Z,16.00
2018-06-12T03:55:54.864Z,16.00
2018-06-12T03:58:23.369Z,16.10
2018-06-12T04:00:51.986Z,16.20
2018-06-12T04:03:20.610Z,16.10
2018-06-12T04:05:49.142Z,16.20
2018-06-12T04:08:17.692Z,16.20
2018-06-12T04:10:46.353Z,16.30
2018-06-12T04:13:14.883Z,16.30
2018-06-12T04:15:43.528Z,16.40
2018-06-12T04:18:12.094Z,16.40
2018-06-12T04:20:40.627Z,16.40
2018-06-12T04:23:09.187Z,16.50
2018-06-12T04:25:37.743Z,16.50
2018-06-12T04:28:06.487Z,16.50
2018-06-12T04:33:03.212Z,16.60
2018-06-12T04:35:31.745Z,16.70
2018-06-12T04:38:00.307Z,16.80
2018-06-12T04:40:28.920Z,16.80
2018-06-12T04:42:57.472Z,16.80
2018-06-12T04:45:26.162Z,16.80
2018-06-12T04:47:55.486Z,16.90
2018-06-12T04:50:23.992Z,17.00
2018-06-12T04:52:52.591Z,17.00
2018-06-12T04:55:21.116Z,17.10
2018-06-12T04:57:50.123Z,17.10
2018-06-12T05:00:19.004Z,17.20
2018-06-12T05:02:47.606Z,17.30
2018-06-12T05:05:23.019Z,17.40
2018-06-12T05:07:51.604Z,17.40
2018-06-12T05:10:20.152Z,17.50
2018-06-12T05:12:49.624Z,17.60
2018-06-12T05:15:18.832Z,17.70
2018-06-12T05:17:47.462Z,17.80
2018-06-12T05:20:16.032Z,17.80
2018-06-12T05:22:44.556Z,18.00
2018-06-12T05:25:13.124Z,18.20
2018-06-12T05:27:41.610Z,18.40
2018-06-12T05:30:10.173Z,18.60
2018-06-12T05:32:38.720Z,18.80
2018-06-12T05:35:07.275Z,19.00
2018-06-12T05:37:35.823Z,19.10
2018-06-12T05:40:04.338Z,19.20
2018-06-12T05:42:32.850Z,19.30
2018-06-12T05:45:01.350Z,19.40
2018-06-12T05:47:29.826Z,19.50
2018-06-12T05:50:01.228Z,19.50
2018-06-12T05:52:29.847Z,19.40
2018-06-12T05:54:58.343Z,19.30
2018-06-12T05:57:26.879Z,19.20
2018-06-12T05:59:55.401Z,19.10
2018-06-12T06:02:23.955Z,19.00
2018-06-12T06:04:52.439Z,18.90
2018-06-12T06:07:20.946Z,18.80
2018-06-12T06:09:49.518Z,18.70
2018-06-12T06:12:18.144Z,18.60
2018-06-12T06:14:46.645Z,18.60
2018-06-12T06:17:15.149Z,18.60
2018-06-12T06:19:43.640Z,18.60
2018-06-12T06:22:12.218Z,18.50
2018-06-12T06:24:40.862Z,18.60
2018-06-12T06:29:37.731Z,18.70
2018-06-12T06:32:06.344Z,18.80
2018-06-12T06:34:34.908Z,18.80
2018-06-12T06:37:03.462Z,18.80
2018-06-12T06:39:31.998Z,18.90
2018-06-12T06:42:00.488Z,18.80
2018-06-12T06:44:29.582Z,18.80
2018-06-12T06:46:58.216Z,18.90
2018-06-12T06:49:26.725Z,18.90
2018-06-12T06:51:57.948Z,19.00
2018-06-12T06:54:28.950Z,19.10
2018-06-12T06:56:57.614Z,19.30
2018-06-12T06:59:26.092Z,19.60
2018-06-12T07:01:54.611Z,19.70
2018-06-12T07:04:23.084Z,20.00
2018-06-12T07:06:51.927Z,20.80
2018-06-12T07:09:20.415Z,21.60
2018-06-12T07:11:49.002Z,22.00
2018-06-12T07:14:17.599Z,22.00
2018-06-12T07:16:46.147Z,21.80
2018-06-12T07:19:14.676Z,21.60
2018-06-12T07:21:43.285Z,21.40
2018-06-12T07:24:12.207Z,21.20
2018-06-12T07:26:40.757Z,21.00
2018-06-12T07:29:09.285Z,21.10
2018-06-12T07:31:37.774Z,21.00
2018-06-12T07:34:06.307Z,20.90
2018-06-12T07:36:34.763Z,20.80
2018-06-12T07:39:03.785Z,20.70
2018-06-12T07:41:32.294Z,20.70
2018-06-12T07:44:00.778Z,20.80
2018-06-12T07:46:29.289Z,20.90
2018-06-12T07:48:57.762Z,21.00
2018-06-12T07:51:26.207Z,21.20
2018-06-12T07:53:54.708Z,21.00
2018-06-12T07:56:23.228Z,20.70
2018-06-12T07:58:51.695Z,20.60
2018-06-12T08:01:20.187Z,20.50
2018-06-12T08:03:48.669Z,20.30
2018-06-12T08:06:17.261Z,20.20
2018-06-12T08:08:45.742Z,20.10
2018-06-12T08:11:14.369Z,19.90
2018-06-12T08:13:42.860Z,19.90
2018-06-12T08:16:11.337Z,19.80
2018-06-12T08:18:39.899Z,19.70
2018-06-12T08:21:08.338Z,19.60
2018-06-12T08:23:36.818Z,19.70
2018-06-12T08:26:05.425Z,19.50
2018-06-12T08:28:33.935Z,19.40
2018-06-12T08:33:30.739Z,19.10
2018-06-12T08:35:59.245Z,19.00
2018-06-12T08:38:27.746Z,18.90
2018-06-12T08:40:56.251Z,18.90
2018-06-12T08:43:24.713Z,19.00
2018-06-12T08:45:53.170Z,19.00
2018-06-12T08:48:21.685Z,19.00
2018-06-12T08:50:50.163Z,19.20
2018-06-12T08:53:18.877Z,19.50
2018-06-12T08:55:48.461Z,19.70
2018-06-12T08:58:17.068Z,19.80
2018-06-12T09:00:45.567Z,19.70
2018-06-12T09:03:14.041Z,19.70
2018-06-12T09:05:42.526Z,19.90
2018-06-12T09:08:11.069Z,20.10
2018-06-12T09:10:39.721Z,20.30
2018-06-12T09:13:08.303Z,20.40
2018-06-12T09:15:36.794Z,20.40
2018-06-12T09:18:05.270Z,20.40
2018-06-12T09:20:33.776Z,20.40
2018-06-12T09:23:02.303Z,20.60
2018-06-12T09:25:30.857Z,20.90
2018-06-12T09:27:59.361Z,21.10
2018-06-12T09:30:27.843Z,21.40
2018-06-12T09:32:57.432Z,21.80
2018-06-12T09:35:25.972Z,22.00
2018-06-12T09:37:54.447Z,22.00
2018-06-12T09:40:22.926Z,21.70
2018-06-12T09:42:52.386Z,21.70
2018-06-12T09:45:20.856Z,21.60
2018-06-12T09:47:49.437Z,21.40
2018-06-12T09:50:17.958Z,21.40
2018-06-12T09:52:46.445Z,21.60
2018-06-12T09:55:15.076Z,21.70
2018-06-12T09:57:43.595Z,21.80
2018-06-12T10:00:12.006Z,22.00
2018-06-12T10:02:40.512Z,22.10
2018-06-12T10:05:08.997Z,22.30
2018-06-12T10:07:37.480Z,22.40
2018-06-12T10:10:05.950Z,22.70
2018-06-12T10:12:34.444Z,23.00
2018-06-12T10:15:02.938Z,23.10
2018-06-12T10:17:32.153Z,23.20
2018-06-12T10:20:00.631Z,23.50
2018-06-12T10:22:29.163Z,23.60
2018-06-12T10:24:57.643Z,23.70
2018-06-12T10:27:26.232Z,23.80
2018-06-12T10:29:54.742Z,23.80
2018-06-12T10:32:23.270Z,24.10
2018-06-12T10:34:51.798Z,24.50
2018-06-12T10:37:20.440Z,24.70
2018-06-12T10:39:48.866Z,25.00
2018-06-12T10:42:17.472Z,25.50
2018-06-12T10:44:45.969Z,26.30
2018-06-12T10:47:14.457Z,27.20
2018-06-12T10:49:43.012Z,28.00
2018-06-12T10:54:40.716Z,28.60
2018-06-12T10:57:09.176Z,28.70
2018-06-12T10:59:37.679Z,29.10
2018-06-12T11:02:06.146Z,29.60
2018-06-12T11:04:34.699Z,30.20
2018-06-12T11:07:03.165Z,30.60
2018-06-12T11:11:59.813Z,31.10
2018-06-12T11:14:28.348Z,30.90
2018-06-12T11:16:56.865Z,30.70
2018-06-12T11:19:25.338Z,30.00
2018-06-12T11:21:53.824Z,28.50
2018-06-12T11:24:22.310Z,27.20
2018-06-12T11:26:50.785Z,26.20
2018-06-12T11:29:19.257Z,25.90
2018-06-12T11:31:47.798Z,26.10
2018-06-12T11:34:16.305Z,26.30
2018-06-12T11:36:44.922Z,26.70
2018-06-12T11:39:13.417Z,26.90
2018-06-12T11:41:41.932Z,27.20
2018-06-12T11:44:10.470Z,27.20
2018-06-12T11:46:38.964Z,27.10
2018-06-12T11:49:07.569Z,26.80
2018-06-12T11:51:36.057Z,26.70
2018-06-12T11:54:04.812Z,26.40
2018-06-12T11:56:33.486Z,26.00
2018-06-12T11:59:02.074Z,25.60
2018-06-12T12:01:30.685Z,25.60
2018-06-12T12:03:59.142Z,25.50
2018-06-12T12:06:27.684Z,25.50
2018-06-12T12:08:56.190Z,25.50
2018-06-12T12:11:24.703Z,25.50
2018-06-12T12:13:53.171Z,25.40
2018-06-12T12:16:21.684Z,25.40
2018-06-12T12:18:50.241Z,25.40
2018-06-12T12:21:18.730Z,25.30
2018-06-12T12:23:47.259Z,25.20
2018-06-12T12:26:15.776Z,25.10
2018-06-12T12:28:44.259Z,24.90
2018-06-12T12:31:12.765Z,24.70
2018-06-12T12:33:41.223Z,24.70
2018-06-12T12:36:09.704Z,24.60
2018-06-12T12:38:38.180Z,24.60
2018-06-12T12:41:06.712Z,24.30
2018-06-12T12:43:35.273Z,24.10
2018-06-12T12:46:03.859Z,23.90
2018-06-12T12:48:32.388Z,23.80
2018-06-12T12:51:00.868Z,23.80
2018-06-12T12:53:29.335Z,24.00
2018-06-12T12:55:57.858Z,24.20
2018-06-12T12:58:26.346Z,24.50
2018-06-12T13:00:54.861Z,24.80
2018-06-12T13:03:23.320Z,25.10
2018-06-12T13:05:51.835Z,25.30
2018-06-12T13:08:20.345Z,25.40
2018-06-12T13:10:48.953Z,25.40
2018-06-12T13:13:17.439Z,25.30
2018-06-12T13:15:45.960Z,25.40
2018-06-12T13:18:14.487Z,25.50
2018-06-12T13:20:43.024Z,25.40
2018-06-12T13:23:11.495Z,25.30
2018-06-12T13:25:40.026Z,25.40
2018-06-12T13:28:08.542Z,25.30
2018-06-12T13:30:37.061Z,25.30
2018-06-12T13:33:05.567Z,25.30
2018-06-12T13:35:34.108Z,25.00
2018-06-12T13:38:02.645Z,24.60
2018-06-12T13:40:31.149Z,24.80
2018-06-12T13:43:00.334Z,25.60
2018-06-12T13:45:28.820Z,26.20
2018-06-12T13:47:57.324Z,26.10
2018-06-12T13:50:25.828Z,25.30
2018-06-12T13:52:54.361Z,24.60
2018-06-12T13:55:22.953Z,24.30
2018-06-12T13:57:51.504Z,24.80
2018-06-12T14:00:20.070Z,26.00
2018-06-12T14:02:48.932Z,27.40
2018-06-12T14:05:17.552Z,28.50
2018-06-12T14:07:46.061Z,29.40
2018-06-12T14:10:14.674Z,30.00
2018-06-12T14:15:11.359Z,30.10
2018-06-12T14:17:39.900Z,29.90
2018-06-12T14:20:08.378Z,29.70
2018-06-12T14:22:37.573Z,29.90
2018-06-12T14:25:06.115Z,30.20
2018-06-12T14:27:34.660Z,30.30
2018-06-12T14:30:03.723Z,30.00
2018-06-12T14:32:32.398Z,29.30
2018-06-12T14:35:01.071Z,28.30
2018-06-12T14:37:29.598Z,27.10
2018-06-12T14:39:58.179Z,26.50
2018-06-12T14:42:26.708Z,26.10
2018-06-12T14:44:55.328Z,25.90
2018-06-12T14:47:23.889Z,25.20
2018-06-12T14:49:52.383Z,24.70
2018-06-12T14:52:21.269Z,24.60
2018-06-12T14:54:49.772Z,24.60
2018-06-12T14:57:18.256Z,24.90
2018-06-12T14:59:46.783Z,25.30
2018-06-12T15:02:15.289Z,25.60
2018-06-12T15:04:43.869Z,25.60
2018-06-12T15:07:12.443Z,25.20
2018-06-12T15:09:40.944Z,24.60
2018-06-12T15:12:09.552Z,24.10
2018-06-12T15:14:38.047Z,23.80
2018-06-12T15:17:06.514Z,23.80
2018-06-12T15:19:35.041Z,24.00
2018-06-12T15:22:03.605Z,24.40
2018-06-12T15:24:32.090Z,24.70
2018-06-12T15:29:28.870Z,25.20
2018-06-12T15:31:57.481Z,25.30
2018-06-12T15:34:26.061Z,25.30
2018-06-12T15:36:54.595Z,25.20
2018-06-12T15:39:23.236Z,25.10
2018-06-12T15:41:51.783Z,25.20
2018-06-12T15:44:20.337Z,25.30
2018-06-12T15:46:48.979Z,25.30
2018-06-12T15:49:17.491Z,25.20
2018-06-12T15:51:45.983Z,24.90
2018-06-12T15:54:14.471Z,24.70
2018-06-12T15:56:42.965Z,24.20
2018-06-12T15:59:11.450Z,23.80
2018-06-12T16:01:40.055Z,23.80
2018-06-12T16:04:08.464Z,23.80
2018-06-12T16:06:36.969Z,23.60
2018-06-12T16:09:08.085Z,23.30
2018-06-12T16:11:36.677Z,22.90
2018-06-12T16:14:05.227Z,22.40
2018-06-12T16:16:33.727Z,21.90
2018-06-12T16:19:02.177Z,21.60
2018-06-12T16:21:30.833Z,21.60
2018-06-12T16:23:59.463Z,21.60
2018-06-12T16:26:27.978Z,21.60
2018-06-12T16:28:56.460Z,21.50
2018-06-12T16:31:25.017Z,21.40
2018-06-12T16:33:53.661Z,21.50
2018-06-12T16:36:22.291Z,21.80
2018-06-12T16:38:50.816Z,22.30
2018-06-12T16:41:19.336Z,22.90
2018-06-12T16:43:47.839Z,24.00
2018-06-12T16:46:16.376Z,24.70
2018-06-12T16:48:44.927Z,25.40
2018-06-12T16:51:14.389Z,25.90
2018-06-12T16:53:44.139Z,26.00
2018-06-12T16:56:12.628Z,25.60
2018-06-12T16:58:41.121Z,25.00
2018-06-12T17:01:09.643Z,25.30
2018-06-12T17:03:38.195Z,25.90
2018-06-12T17:06:06.735Z,26.50
2018-06-12T17:08:35.328Z,26.10
2018-06-12T17:11:03.862Z,26.20
2018-06-12T17:13:32.382Z,26.00
2018-06-12T17:16:00.881Z,25.50
2018-06-12T17:18:29.515Z,26.40
2018-06-12T17:20:58.069Z,26.60
2018-06-12T17:23:26.565Z,27.60
2018-06-12T17:25:55.149Z,29.10
2018-06-12T17:28:23.753Z,29.00
2018-06-12T17:30:52.402Z,27.90
2018-06-12T17:33:21.643Z,26.90
2018-06-12T17:35:50.174Z,27.00
2018-06-12T17:38:18.772Z,27.20
2018-06-12T17:40:47.266Z,26.70
2018-06-12T17:43:15.773Z,26.00
2018-06-12T17:45:44.234Z,25.20
2018-06-12T17:48:12.751Z,24.30
2018-06-12T17:50:41.365Z,23.60
2018-06-12T17:53:09.886Z,23.50
2018-06-12T17:55:38.448Z,23.00
2018-06-12T17:58:07.738Z,22.40
2018-06-12T18:00:36.424Z,21.80
2018-06-12T18:03:04.992Z,21.30
2018-06-12T18:05:33.425Z,20.80
2018-06-12T18:08:02.622Z,20.40
2018-06-12T18:10:31.118Z,20.00
2018-06-12T18:12:59.517Z,19.80
2018-06-12T18:15:28.208Z,19.80
2018-06-12T18:17:56.697Z,19.90
2018-06-12T18:20:25.532Z,19.80
2018-06-12T18:22:56.849Z,19.50
2018-06-12T18:25:25.684Z,19.20
2018-06-12T18:27:54.193Z,18.90
2018-06-12T18:30:22.785Z,18.90
2018-06-12T18:32:51.311Z,18.90
2018-06-12T18:35:20.010Z,18.90
2018-06-12T18:37:48.501Z,18.90
2018-06-12T18:40:17.433Z,18.70
2018-06-12T18:42:46.032Z,18.60
2018-06-12T18:45:14.623Z,18.30
2018-06-12T18:47:43.195Z,17.90
2018-06-12T18:50:11.718Z,17.60
2018-06-12T18:52:40.247Z,17.40
2018-06-12T18:55:08.838Z,17.20
2018-06-12T18:57:37.403Z,17.10
2018-06-12T19:00:06.383Z,17.00
2018-06-12T19:02:35.053Z,17.00
2018-06-12T19:05:03.601Z,16.90
2018-06-12T19:07:32.227Z,16.80
2018-06-12T19:10:00.739Z,16.70
2018-06-12T19:12:29.241Z,16.40
2018-06-12T19:14:57.762Z,16.20
2018-06-12T19:17:26.321Z,16.00
2018-06-12T19:19:54.884Z,15.70
2018-06-12T19:22:23.385Z,15.40
2018-06-12T19:24:51.886Z,15.20
2018-06-12T19:27:20.380Z,15.10
2018-06-12T19:29:55.360Z,15.10
2018-06-12T19:32:23.871Z,15.20
2018-06-12T19:34:52.531Z,15.20
2018-06-12T19:37:21.034Z,15.30
2018-06-12T19:39:49.523Z,15.40
2018-06-12T19:42:17.995Z,15.50
2018-06-12T19:44:46.480Z,15.50
2018-06-12T19:47:15.016Z,15.40
2018-06-12T19:49:44.001Z,15.40
2018-06-12T19:52:12.502Z,15.40
2018-06-12T19:54:41.114Z,15.40
2018-06-12T19:57:09.609Z,15.40
2018-06-12T19:59:38.121Z,15.40
2018-06-12T20:02:06.717Z,15.40
2018-06-12T20:04:35.258Z,15.40
2018-06-12T20:07:03.790Z,15.30
2018-06-12T20:09:32.291Z,15.30
2018-06-12T20:12:00.779Z,15.30
2018-06-12T20:14:29.370Z,15.30
2018-06-12T20:16:57.960Z,15.20
2018-06-12T20:19:26.530Z,15.20
2018-06-12T20:21:55.050Z,15.20
2018-06-12T20:24:23.533Z,15.20
2018-06-12T20:26:52.168Z,15.20
2018-06-12T20:29:21.318Z,15.20
2018-06-12T20:31:49.868Z,15.20
2018-06-12T20:34:18.399Z,15.20
2018-06-12T20:36:46.932Z,15.30
2018-06-12T20:39:15.425Z,15.30
2018-06-12T20:41:43.990Z,15.30
2018-06-12T20:44:12.516Z,15.20
2018-06-12T20:46:41.072Z,15.10
2018-06-12T20:49:09.642Z,15.00
2018-06-12T20:51:38.179Z,15.00
2018-06-12T20:54:06.706Z,15.10
2018-06-12T20:56:35.223Z,15.10
2018-06-12T20:59:03.730Z,15.10
2018-06-12T21:01:32.278Z,15.10
2018-06-12T21:04:00.763Z,15.10
2018-06-12T21:06:29.327Z,15.10
2018-06-12T21:08:57.904Z,15.10
2018-06-12T21:11:26.421Z,15.10
2018-06-12T21:13:57.897Z,15.10
2018-06-12T21:16:26.402Z,15.10
2018-06-12T21:18:54.981Z,15.10
2018-06-12T21:21:23.532Z,15.00
2018-06-12T21:23:52.104Z,15.00
2018-06-12T21:26:20.792Z,15.00
2018-06-12T21:28:49.392Z,15.00
2018-06-12T21:31:18.022Z,15.00
2018-06-12T21:33:46.571Z,15.00
2018-06-12T21:36:15.157Z,15.00
2018-06-12T21:38:43.777Z,14.90
2018-06-12T21:41:12.312Z,15.00
2018-06-12T21:43:40.899Z,14.90
2018-06-12T21:46:09.412Z,14.90
2018-06-12T21:48:37.942Z,15.00
2018-06-12T21:51:06.479Z,15.00
2018-06-12T21:53:34.981Z,15.00
2018-06-12T21:56:03.460Z,15.00
2018-06-12T21:58:31.946Z,15.00
2018-06-12T22:01:00.434Z,15.00
2018-06-12T22:03:28.917Z,15.00
2018-06-12T22:05:57.396Z,15.00
2018-06-12T22:08:25.870Z,15.00
2018-06-12T22:10:54.472Z,15.00
2018-06-12T22:13:22.934Z,15.00
2018-06-12T22:15:51.551Z,15.00
2018-06-12T22:18:20.104Z,15.00
2018-06-12T22:20:48.727Z,15.10
2018-06-12T22:23:17.185Z,15.00
2018-06-12T22:25:45.672Z,15.00
2018-06-12T22:28:14.156Z,15.00
2018-06-12T22:30:42.637Z,15.00
2018-06-12T22:33:11.102Z,15.00
2018-06-12T22:38:07.814Z,15.00
2018-06-12T22:40:36.372Z,15.00
2018-06-12T22:43:04.881Z,15.00
2018-06-12T22:45:33.436Z,15.00
2018-06-12T22:48:01.888Z,14.90
2018-06-12T22:50:30.378Z,14.90
2018-06-12T22:52:58.876Z,15.00
2018-06-12T22:55:27.382Z,15.00
2018-06-12T22:57:55.912Z,15.00
2018-06-12T23:00:24.398Z,15.00
2018-06-12T23:02:52.875Z,15.00
2018-06-12T23:05:22.367Z,15.10
2018-06-12T23:07:50.844Z,15.10
2018-06-12T23:10:19.408Z,15.10
2018-06-12T23:12:47.882Z,15.20
2018-06-12T23:15:16.386Z,15.20
2018-06-12T23:17:44.902Z,15.30
2018-06-12T23:20:24.941Z,15.20
2018-06-12T23:22:53.484Z,15.20
2018-06-12T23:25:22.067Z,15.20
2018-06-12T23:27:50.579Z,15.20
2018-06-12T23:32:47.262Z,15.20
2018-06-12T23:35:15.797Z,15.20
2018-06-12T23:37:44.338Z,15.20
2018-06-12T23:40:12.857Z,15.10
2018-06-12T23:42:41.365Z,15.10
2018-06-12T23:45:09.955Z,15.10
2018-06-12T23:47:38.625Z,15.10
2018-06-12T23:50:07.321Z,15.10
2018-06-12T23:52:35.953Z,15.10
2018-06-12T23:55:04.563Z,15.00
2018-06-12T23:57:33.139Z,15.00
